createdAt,value
2023-04-16T00:01:03.682Z,18.63
2023-04-16T00:11:04.972Z,18.60
2023-04-16T00:21:06.214Z,18.57
2023-04-16T00:31:07.524Z,18.58
2023-04-16T00:41:08.851Z,18.55
2023-04-16T00:51:10.136Z,18.54
2023-04-16T01:01:11.468Z,18.56
2023-04-16T01:11:12.749Z,18.53
2023-04-16T01:21:14.043Z,18.54
2023-04-16T01:31:15.368Z,18.52
2023-04-16T01:41:16.669Z,18.55
2023-04-16T01:51:17.955Z,18.56
2023-04-16T02:01:19.359Z,18.59
2023-04-16T02:11:20.625Z,18.57
2023-04-16T02:21:21.876Z,18.57
2023-04-16T02:31:23.150Z,18.51
2023-04-16T02:41:24.421Z,18.55
2023-04-16T02:51:25.698Z,18.50
2023-04-16T03:01:26.941Z,18.55
2023-04-16T03:11:28.187Z,18.51
2023-04-16T03:21:29.437Z,18.52
2023-04-16T03:31:30.666Z,18.53
2023-04-16T03:41:32.001Z,18.54
2023-04-16T03:51:33.248Z,18.51
2023-04-16T04:01:34.519Z,18.51
2023-04-16T04:11:35.763Z,18.50
2023-04-16T04:21:37.017Z,18.50
2023-04-16T04:31:38.309Z,18.49
2023-04-16T04:41:39.582Z,18.48
2023-04-16T04:51:40.854Z,18.46
2023-04-16T05:01:42.198Z,18.41
2023-04-16T05:11:43.504Z,18.47
2023-04-16T05:21:44.762Z,18.45
2023-04-16T05:31:46.012Z,18.43
2023-04-16T05:41:47.281Z,18.42
2023-04-16T05:51:50.629Z,18.39
2023-04-16T06:01:52.197Z,18.35
2023-04-16T06:11:53.485Z,18.35
2023-04-16T06:21:54.702Z,18.30
2023-04-16T06:42:24.946Z,18.30
2023-04-16T06:52:26.199Z,18.30
2023-04-16T07:02:27.633Z,18.31
2023-04-16T07:12:28.984Z,18.32
2023-04-16T07:22:30.246Z,18.26
2023-04-16T07:32:31.538Z,18.21
2023-04-16T18:00:14.376Z,18.76
2023-04-16T19:34:02.338Z,18.63
2023-04-16T19:44:08.152Z,18.61
2023-04-16T19:54:11.573Z,18.60
2023-04-16T20:04:12.923Z,18.62
2023-04-16T20:14:14.779Z,18.52
2023-04-16T20:24:19.246Z,18.46
2023-04-16T20:34:20.619Z,18.50
2023-04-16T20:44:22.222Z,18.46
2023-04-16T20:54:23.671Z,18.49
2023-04-16T21:04:25.203Z,18.41
2023-04-16T21:14:28.430Z,18.43
2023-04-16T21:24:29.782Z,18.51
2023-04-16T21:34:31.052Z,18.51
2023-04-16T21:44:32.382Z,18.41
2023-04-16T21:54:34.358Z,18.46
2023-04-16T22:04:35.690Z,18.37
2023-04-16T22:14:36.986Z,18.33
2023-04-16T22:24:38.228Z,18.40
2023-04-16T22:34:45.580Z,18.29
2023-04-16T22:44:46.826Z,18.26
2023-04-16T22:54:48.078Z,18.45
2023-04-16T23:04:49.475Z,18.43
2023-04-16T23:14:50.925Z,18.35
2023-04-16T23:24:52.217Z,18.40
2023-04-16T23:34:53.641Z,18.42
2023-04-16T23:44:54.949Z,18.21
2023-04-16T23:54:56.250Z,18.35
